Terminal Aerodrome Forecast
Issued by NWS

Home | Current Version | Previous Version | Text Only | Print | Product List | Glossary On
Versions: 1 2 3 4 5 6 7 8 9 10 11 12 13 14 15 16 17 18 19 20 21 22 23 24 25 26 27 28 29 30 31
000
FTUS45 KBOU 202338
TAFAPA
TAF
KAPA 202338Z 2100/2124 18010G18KT P6SM -SHRA BKN025 OVC050
     FM210100 04010KT P6SM SCT015 OVC025
     FM210300 06008KT 4SM -RASN BR BKN004 OVC012
     FM210600 34010KT 3/4SM -SN BR OVC002
     FM211400 34008KT 4SM -RASN SCT006 OVC012
     FM212000 04008KT P6SM SCT015 BKN025=

USA.gov is the U.S. government's official web portal to all federal, state and local government web resources and services.